createdAt,value
2022-08-05T00:00:25.906Z,27.20
2022-08-05T00:02:07.569Z,27.10
2022-08-05T00:03:41.332Z,27.10
2022-08-05T00:06:03.226Z,27.00
2022-08-05T00:07:27.151Z,26.90
2022-08-05T00:09:02.158Z,27.00
2022-08-05T00:10:35.867Z,27.00
2022-08-05T00:12:13.102Z,27.00
2022-08-05T00:13:46.435Z,27.00
2022-08-05T00:15:55.326Z,27.00
2022-08-05T00:17:19.661Z,27.00
2022-08-05T00:18:53.082Z,27.00
2022-08-05T00:20:29.022Z,27.00
2022-08-05T00:22:02.287Z,27.10
2022-08-05T00:23:46.009Z,27.00
2022-08-05T00:25:19.791Z,27.00
2022-08-05T00:26:53.620Z,27.00
2022-08-05T00:28:29.796Z,26.90
2022-08-05T00:30:03.242Z,26.90
2022-08-05T00:31:54.264Z,26.90
2022-08-05T00:34:55.795Z,26.80
2022-08-05T00:35:21.930Z,26.70
2022-08-05T00:37:11.460Z,26.70
2022-08-05T00:38:46.411Z,26.70
2022-08-05T00:40:27.390Z,26.70
2022-08-05T00:42:01.372Z,26.70
2022-08-05T00:43:47.386Z,26.70
2022-08-05T00:45:28.339Z,26.70
2022-08-05T00:47:12.137Z,26.70
2022-08-05T00:48:51.514Z,26.60
2022-08-05T00:50:25.473Z,26.70
2022-08-05T00:51:58.415Z,26.70
2022-08-05T00:54:01.110Z,26.70
2022-08-05T00:55:42.217Z,26.70
2022-08-05T00:57:15.935Z,26.80
2022-08-05T00:58:54.080Z,26.80
2022-08-05T01:00:26.362Z,26.90
2022-08-05T01:01:59.134Z,26.80
2022-08-05T01:03:34.191Z,26.80
2022-08-05T01:05:10.007Z,26.80
2022-08-05T01:06:43.718Z,26.80
2022-08-05T01:08:41.929Z,26.80
2022-08-05T01:10:16.979Z,26.80
2022-08-05T01:11:54.024Z,26.80
2022-08-05T01:13:57.952Z,26.90
2022-08-05T01:15:36.746Z,26.90
2022-08-05T01:17:12.655Z,26.90
2022-08-05T01:18:53.731Z,26.90
2022-08-05T01:20:38.902Z,26.90
2022-08-05T01:22:38.561Z,26.80
2022-08-05T01:24:32.551Z,26.80
2022-08-05T01:26:26.291Z,26.70
2022-08-05T01:28:18.051Z,26.70
2022-08-05T01:29:55.258Z,26.60
2022-08-05T01:31:42.562Z,26.50
2022-08-05T01:33:20.691Z,26.30
2022-08-05T01:35:01.896Z,26.20
2022-08-05T01:36:42.378Z,26.10
2022-08-05T01:38:26.939Z,26.10
2022-08-05T01:40:03.557Z,26.10
2022-08-05T01:41:38.403Z,26.10
2022-08-05T01:43:22.291Z,26.00
2022-08-05T01:44:59.940Z,26.00
2022-08-05T01:46:42.099Z,25.90
2022-08-05T01:48:18.306Z,25.80
2022-08-05T01:50:02.038Z,25.70
2022-08-05T01:51:37.679Z,25.60
2022-08-05T01:53:14.958Z,25.70
2022-08-05T01:55:10.960Z,25.70
2022-08-05T01:58:13.576Z,25.60
2022-08-05T01:58:45.331Z,25.60
2022-08-05T02:00:19.328Z,25.50
2022-08-05T02:01:55.568Z,25.50
2022-08-05T02:03:37.550Z,25.50
2022-08-05T02:05:14.386Z,25.50
2022-08-05T02:06:48.326Z,25.50
2022-08-05T02:08:30.698Z,25.50
2022-08-05T02:10:05.784Z,25.50
2022-08-05T02:11:47.928Z,25.50
2022-08-05T02:13:48.592Z,25.50
2022-08-05T02:15:33.368Z,25.40
2022-08-05T02:17:23.493Z,25.40
2022-08-05T02:19:11.400Z,25.40
2022-08-05T02:20:49.418Z,25.20
2022-08-05T02:22:31.563Z,25.10
2022-08-05T02:24:09.103Z,25.00
2022-08-05T02:25:49.729Z,25.10
2022-08-05T02:27:29.700Z,25.10
2022-08-05T02:29:04.041Z,25.20
2022-08-05T02:30:51.843Z,25.20
2022-08-05T02:32:31.410Z,25.20
2022-08-05T02:34:09.875Z,25.30
2022-08-05T02:35:55.940Z,25.30
2022-08-05T02:37:34.722Z,25.30
2022-08-05T02:39:10.049Z,25.30
2022-08-05T02:40:44.505Z,25.30
2022-08-05T02:42:25.756Z,25.30
2022-08-05T02:44:05.915Z,25.30
2022-08-05T02:45:52.538Z,25.30
2022-08-05T02:48:06.983Z,25.40
2022-08-05T02:49:21.971Z,25.30
2022-08-05T02:50:55.895Z,25.30
2022-08-05T02:52:30.946Z,25.30
2022-08-05T02:54:04.187Z,25.30
2022-08-05T02:55:53.983Z,25.30
2022-08-05T02:58:20.087Z,25.40
2022-08-05T02:59:27.015Z,25.30
2022-08-05T03:01:03.501Z,25.30
2022-08-05T03:02:42.629Z,25.30
2022-08-05T03:04:15.999Z,25.30
2022-08-05T03:06:56.095Z,25.20
2022-08-05T03:08:06.897Z,25.10
2022-08-05T03:09:38.407Z,25.00
2022-08-05T03:11:55.114Z,25.00
2022-08-05T03:13:16.716Z,25.00
2022-08-05T03:14:49.927Z,25.00
2022-08-05T03:16:24.072Z,25.00
2022-08-05T03:17:57.533Z,25.00
2022-08-05T03:19:33.980Z,25.00
2022-08-05T03:21:08.835Z,24.90
2022-08-05T03:22:46.749Z,24.80
2022-08-05T03:24:29.823Z,24.80
2022-08-05T03:26:30.956Z,24.80
2022-08-05T03:27:59.381Z,24.80
2022-08-05T03:29:45.854Z,24.80
2022-08-05T03:31:56.533Z,24.70
2022-08-05T03:33:20.534Z,24.60
2022-08-05T03:34:55.086Z,24.60
2022-08-05T03:36:30.202Z,24.50
2022-08-05T03:38:03.729Z,24.50
2022-08-05T03:39:57.638Z,24.50
2022-08-05T03:41:33.202Z,24.50
2022-08-05T03:43:58.840Z,24.50
2022-08-05T03:45:21.661Z,24.50
2022-08-05T03:46:56.382Z,24.60
2022-08-05T03:48:29.667Z,24.50
2022-08-05T03:50:02.799Z,24.50
2022-08-05T03:52:37.316Z,24.40
2022-08-05T03:55:52.963Z,24.50
2022-08-05T03:56:05.718Z,24.40
2022-08-05T03:57:42.553Z,24.50
2022-08-05T03:59:20.490Z,24.50
2022-08-05T04:00:56.550Z,24.40
2022-08-05T04:02:39.035Z,24.40
2022-08-05T04:04:21.328Z,24.40
2022-08-05T04:05:54.991Z,24.40
2022-08-05T04:07:30.727Z,24.40
2022-08-05T04:09:06.944Z,24.40
2022-08-05T04:10:40.707Z,24.50
2022-08-05T04:12:24.409Z,24.40
2022-08-05T04:13:57.791Z,24.40
2022-08-05T04:15:36.060Z,24.40
2022-08-05T04:17:11.375Z,24.30
2022-08-05T04:18:47.627Z,24.30
2022-08-05T04:20:27.321Z,24.30
2022-08-05T04:22:09.392Z,24.20
2022-08-05T04:24:05.452Z,24.30
2022-08-05T04:25:56.759Z,24.20
2022-08-05T04:27:41.925Z,24.20
2022-08-05T04:29:16.427Z,24.10
2022-08-05T04:30:49.856Z,24.00
2022-08-05T04:32:31.045Z,23.90
2022-08-05T04:34:31.307Z,23.90
2022-08-05T04:36:10.725Z,23.70
2022-08-05T04:38:02.540Z,23.70
2022-08-05T04:39:40.080Z,23.60
2022-08-05T04:41:13.218Z,23.60
2022-08-05T04:42:46.452Z,23.50
2022-08-05T04:44:29.704Z,23.50
2022-08-05T04:46:04.444Z,23.60
2022-08-05T04:47:38.602Z,23.50
2022-08-05T04:49:16.867Z,23.50
2022-08-05T04:51:02.684Z,23.50
2022-08-05T04:52:43.726Z,23.50
2022-08-05T04:54:19.571Z,23.40
2022-08-05T04:56:14.796Z,23.50
2022-08-05T04:57:47.875Z,23.50
2022-08-05T04:59:26.678Z,23.50
2022-08-05T05:01:11.589Z,23.50
2022-08-05T05:02:44.450Z,23.50
2022-08-05T05:04:18.635Z,23.50
2022-08-05T05:06:40.555Z,23.60
2022-08-05T05:07:45.650Z,23.60
2022-08-05T05:09:25.819Z,23.60
2022-08-05T05:10:58.662Z,23.70
2022-08-05T05:12:31.023Z,23.70
2022-08-05T05:14:04.295Z,23.80
2022-08-05T05:15:56.866Z,23.90
2022-08-05T05:17:55.761Z,23.90
2022-08-05T05:19:37.202Z,23.90
2022-08-05T05:21:17.358Z,24.00
2022-08-05T05:22:50.237Z,24.00
2022-08-05T05:24:22.983Z,24.00
2022-08-05T05:26:15.920Z,23.90
2022-08-05T05:27:55.717Z,24.00
2022-08-05T05:30:03.528Z,24.00
2022-08-05T05:31:21.775Z,24.10
2022-08-05T05:33:00.770Z,24.10
2022-08-05T05:34:35.915Z,24.10
2022-08-05T05:36:09.340Z,24.10
2022-08-05T05:37:59.661Z,24.10
2022-08-05T05:39:36.024Z,24.10
2022-08-05T05:41:09.153Z,24.20
2022-08-05T05:42:47.127Z,24.20
2022-08-05T05:44:36.709Z,24.20
2022-08-05T05:46:17.685Z,24.20
2022-08-05T05:48:06.315Z,24.20
2022-08-05T05:49:41.974Z,24.20
2022-08-05T05:51:20.180Z,24.30
2022-08-05T05:52:53.090Z,24.30
2022-08-05T05:54:50.506Z,24.30
2022-08-05T05:56:25.949Z,24.30
2022-08-05T05:58:06.257Z,24.40
2022-08-05T05:59:40.093Z,24.40
2022-08-05T06:01:15.447Z,24.40
2022-08-05T06:02:48.495Z,24.50
2022-08-05T06:04:22.023Z,24.60
2022-08-05T06:05:56.327Z,24.50
2022-08-05T06:07:41.226Z,24.50
2022-08-05T06:09:17.346Z,24.50
2022-08-05T06:10:58.356Z,24.50
2022-08-05T06:12:31.284Z,24.60
2022-08-05T06:14:04.113Z,24.50
2022-08-05T06:16:28.785Z,24.50
2022-08-05T06:17:30.834Z,24.50
2022-08-05T06:19:05.767Z,24.60
2022-08-05T06:20:39.995Z,24.60
2022-08-05T06:22:14.185Z,24.60
2022-08-05T06:23:50.952Z,24.60
2022-08-05T06:25:59.487Z,24.60
2022-08-05T06:28:09.091Z,24.50
2022-08-05T06:29:25.063Z,24.40
2022-08-05T06:31:11.231Z,24.30
2022-08-05T06:32:51.112Z,24.20
2022-08-05T06:34:27.721Z,24.20
2022-08-05T06:36:07.538Z,24.20
2022-08-05T06:37:57.746Z,24.20
2022-08-05T06:39:31.506Z,24.10
2022-08-05T06:41:04.833Z,24.00
2022-08-05T06:42:37.820Z,24.00
2022-08-05T06:44:12.707Z,24.00
2022-08-05T06:46:06.732Z,24.00
2022-08-05T06:48:36.386Z,24.00
2022-08-05T06:50:00.480Z,24.00
2022-08-05T06:51:29.572Z,24.10
2022-08-05T06:53:11.531Z,24.10
2022-08-05T06:54:55.119Z,24.10
2022-08-05T06:56:28.030Z,24.10
2022-08-05T06:58:11.589Z,24.10
2022-08-05T06:59:56.514Z,24.20
2022-08-05T07:01:32.583Z,24.20
2022-08-05T07:03:05.853Z,24.20
2022-08-05T07:04:42.486Z,24.20
2022-08-05T07:06:20.629Z,24.30
2022-08-05T07:07:53.567Z,24.30
2022-08-05T07:09:32.348Z,24.40
2022-08-05T07:11:15.234Z,24.40
2022-08-05T07:13:05.881Z,24.40
2022-08-05T07:14:56.371Z,24.50
2022-08-05T07:17:59.948Z,24.50
2022-08-05T07:18:41.520Z,24.60
2022-08-05T07:20:38.961Z,24.60
2022-08-05T07:22:11.968Z,24.50
2022-08-05T07:23:49.995Z,24.50
2022-08-05T07:25:56.252Z,24.50
2022-08-05T07:27:19.324Z,24.60
2022-08-05T07:28:54.392Z,24.60
2022-08-05T07:30:31.051Z,24.60
2022-08-05T07:32:06.717Z,24.60
2022-08-05T07:33:39.559Z,24.70
2022-08-05T07:35:56.088Z,24.70
2022-08-05T07:37:07.958Z,24.70
2022-08-05T07:38:44.487Z,24.70
2022-08-05T07:40:32.251Z,24.60
2022-08-05T07:42:15.282Z,24.60
2022-08-05T07:43:49.325Z,24.50
2022-08-05T07:45:31.293Z,24.50
2022-08-05T07:47:15.564Z,24.50
2022-08-05T07:49:03.506Z,24.50
2022-08-05T07:50:38.123Z,24.50
2022-08-05T07:52:11.859Z,24.60
2022-08-05T07:53:49.921Z,24.60
2022-08-05T07:56:04.607Z,24.60
2022-08-05T07:57:57.486Z,24.60
2022-08-05T07:59:10.746Z,24.60
2022-08-05T08:00:43.804Z,24.60
2022-08-05T08:02:18.479Z,24.60
2022-08-05T08:03:51.461Z,24.70
2022-08-05T08:05:24.290Z,24.70
2022-08-05T08:07:00.831Z,24.70
2022-08-05T08:08:39.564Z,24.80
2022-08-05T08:10:12.900Z,24.80
2022-08-05T08:11:58.914Z,24.80
2022-08-05T08:13:42.993Z,24.90
2022-08-05T08:16:33.538Z,24.90
2022-08-05T08:17:21.205Z,24.90
2022-08-05T08:18:54.336Z,25.00
2022-08-05T08:21:00.162Z,25.00
2022-08-05T08:22:27.114Z,25.00
2022-08-05T08:24:04.642Z,25.00
2022-08-05T08:25:59.732Z,25.10
2022-08-05T08:27:37.994Z,25.10
2022-08-05T08:29:29.339Z,25.10
2022-08-05T08:31:15.062Z,25.20
2022-08-05T08:32:50.186Z,25.30
2022-08-05T08:34:30.545Z,25.30
2022-08-05T08:36:37.625Z,25.30
2022-08-05T08:37:59.400Z,25.30
2022-08-05T08:39:32.864Z,25.30
2022-08-05T08:41:14.087Z,25.30
2022-08-05T08:42:52.786Z,25.40
2022-08-05T08:45:22.624Z,25.40
2022-08-05T08:46:24.944Z,25.40
2022-08-05T08:48:12.344Z,25.40
2022-08-05T08:50:06.213Z,25.40
2022-08-05T08:52:03.820Z,25.40
2022-08-05T08:53:45.034Z,25.40
2022-08-05T08:55:19.515Z,25.40
2022-08-05T08:57:11.597Z,25.40
2022-08-05T08:58:48.700Z,25.40
2022-08-05T09:00:23.229Z,25.40
2022-08-05T09:01:57.227Z,25.40
2022-08-05T09:03:40.412Z,25.40
2022-08-05T09:05:18.536Z,25.30
2022-08-05T09:07:19.657Z,25.30
2022-08-05T09:09:02.939Z,25.30
2022-08-05T09:10:35.962Z,25.30
2022-08-05T09:12:20.713Z,25.30
2022-08-05T09:14:54.434Z,25.30
2022-08-05T09:15:55.103Z,25.20
2022-08-05T09:17:40.812Z,25.10
2022-08-05T09:19:14.720Z,25.00
2022-08-05T09:20:47.519Z,25.00
2022-08-05T09:22:31.287Z,25.00
2022-08-05T09:24:08.588Z,25.00
2022-08-05T09:26:01.997Z,24.90
2022-08-05T09:28:03.868Z,24.90
2022-08-05T09:29:51.719Z,24.90
2022-08-05T09:32:40.002Z,24.80
2022-08-05T09:33:19.590Z,24.80
2022-08-05T09:34:55.949Z,24.80
2022-08-05T09:36:45.885Z,24.80
2022-08-05T09:38:29.896Z,24.70
2022-08-05T09:40:02.804Z,24.70
2022-08-05T09:41:38.209Z,24.70
2022-08-05T09:43:27.887Z,24.70
2022-08-05T09:45:17.445Z,24.80
2022-08-05T09:47:15.848Z,24.80
2022-08-05T09:48:55.454Z,24.90
2022-08-05T09:50:44.410Z,25.00
2022-08-05T09:52:23.903Z,25.00
2022-08-05T09:53:58.944Z,25.00
2022-08-05T09:55:56.125Z,24.90
2022-08-05T09:57:35.300Z,24.90
2022-08-05T09:59:17.316Z,24.90
2022-08-05T10:00:55.538Z,25.00
2022-08-05T10:02:38.936Z,25.00
2022-08-05T10:04:13.675Z,25.10
2022-08-05T10:06:07.710Z,25.10
2022-08-05T10:08:35.172Z,25.20
2022-08-05T10:10:14.062Z,25.20
2022-08-05T10:11:50.698Z,25.30
2022-08-05T10:13:45.605Z,25.40
2022-08-05T10:15:24.172Z,25.50
2022-08-05T10:17:14.113Z,25.50
2022-08-05T10:19:09.464Z,25.60
2022-08-05T10:20:47.915Z,25.70
2022-08-05T10:22:30.336Z,25.80
2022-08-05T10:24:13.353Z,25.80
2022-08-05T10:25:46.595Z,25.80
2022-08-05T10:27:26.354Z,25.90
2022-08-05T10:29:13.488Z,25.90
2022-08-05T10:32:49.302Z,25.90
2022-08-05T10:33:02.610Z,25.90
2022-08-05T10:34:37.526Z,25.90
2022-08-05T10:36:13.869Z,26.00
2022-08-05T10:37:49.255Z,26.00
2022-08-05T10:40:03.484Z,26.00
2022-08-05T10:41:44.940Z,26.00
2022-08-05T10:43:35.806Z,26.10
2022-08-05T10:45:23.458Z,26.20
2022-08-05T10:47:26.000Z,26.20
2022-08-05T10:49:10.103Z,26.30
2022-08-05T10:51:00.357Z,26.40
2022-08-05T10:52:46.910Z,26.40
2022-08-05T10:54:28.360Z,26.40
2022-08-05T10:56:14.650Z,26.40
2022-08-05T10:58:09.307Z,26.40
2022-08-05T11:00:02.451Z,26.40
2022-08-05T11:01:54.947Z,26.30
2022-08-05T11:03:31.596Z,26.20
2022-08-05T11:05:10.221Z,26.20
2022-08-05T11:07:08.129Z,26.10
2022-08-05T11:09:01.651Z,26.10
2022-08-05T11:10:37.042Z,26.00
2022-08-05T11:12:54.378Z,26.00
2022-08-05T11:14:57.784Z,26.10
2022-08-05T11:16:33.884Z,26.10
2022-08-05T11:18:29.998Z,26.20
2022-08-05T11:20:10.894Z,26.20
2022-08-05T11:21:49.776Z,26.10
2022-08-05T11:24:02.879Z,26.10
2022-08-05T11:26:05.627Z,26.10
2022-08-05T11:27:45.801Z,26.20
2022-08-05T11:29:40.151Z,26.20
2022-08-05T11:31:58.536Z,26.20
2022-08-05T11:33:34.538Z,26.20
2022-08-05T11:36:02.775Z,26.30
2022-08-05T11:38:30.407Z,26.40
2022-08-05T11:40:00.329Z,26.50
2022-08-05T11:41:57.953Z,26.70
2022-08-05T11:44:05.191Z,26.80
2022-08-05T11:46:27.562Z,26.90
2022-08-05T11:47:22.149Z,26.90
2022-08-05T11:49:15.976Z,27.00
2022-08-05T11:50:49.982Z,27.10
2022-08-05T11:52:29.405Z,27.10
2022-08-05T11:54:02.824Z,27.20
2022-08-05T11:55:37.515Z,27.30
2022-08-05T11:57:25.580Z,27.30
2022-08-05T11:58:59.851Z,27.30
2022-08-05T12:00:38.160Z,27.30
2022-08-05T12:02:23.710Z,27.30
2022-08-05T12:04:02.772Z,27.30
2022-08-05T12:05:43.566Z,27.30
2022-08-05T12:07:18.706Z,27.40
2022-08-05T12:09:11.677Z,27.50
2022-08-05T12:10:58.679Z,27.60
2022-08-05T12:12:31.738Z,27.70
2022-08-05T12:14:07.418Z,27.70
2022-08-05T12:15:44.581Z,27.90
2022-08-05T12:18:03.415Z,27.90
2022-08-05T12:20:25.958Z,27.90
2022-08-05T12:21:13.465Z,27.90
2022-08-05T12:22:48.056Z,27.80
2022-08-05T12:24:24.763Z,27.80
2022-08-05T12:25:58.864Z,27.80
2022-08-05T12:27:32.613Z,27.80
2022-08-05T12:29:09.783Z,27.80
2022-08-05T12:30:50.932Z,27.80
2022-08-05T12:32:24.597Z,27.80
2022-08-05T12:33:58.377Z,27.80
2022-08-05T12:35:36.957Z,27.80
2022-08-05T12:37:17.123Z,27.80
2022-08-05T12:38:50.970Z,27.90
2022-08-05T12:40:29.626Z,27.90
2022-08-05T12:42:04.418Z,27.90
2022-08-05T12:43:59.668Z,27.90
2022-08-05T12:45:42.505Z,27.90
2022-08-05T12:47:30.438Z,27.90
2022-08-05T12:49:12.994Z,27.90
2022-08-05T12:52:11.032Z,27.90
2022-08-05T12:53:06.276Z,27.90
2022-08-05T12:54:41.757Z,27.90
2022-08-05T12:56:34.295Z,28.00
2022-08-05T12:58:50.806Z,27.90
2022-08-05T13:02:00.940Z,28.00
2022-08-05T13:02:20.466Z,28.00
2022-08-05T13:04:00.151Z,28.00
2022-08-05T13:05:37.740Z,28.00
2022-08-05T13:07:16.181Z,28.00
2022-08-05T13:08:52.187Z,28.00
2022-08-05T13:10:25.941Z,28.00
2022-08-05T13:12:04.911Z,28.00
2022-08-05T13:14:04.570Z,28.00
2022-08-05T13:15:41.769Z,28.00
2022-08-05T13:17:31.484Z,27.90
2022-08-05T13:19:13.928Z,27.80
2022-08-05T13:20:49.791Z,27.90
2022-08-05T13:22:28.085Z,27.80
2022-08-05T13:24:02.740Z,27.80
2022-08-05T13:25:56.100Z,27.70
2022-08-05T13:27:37.647Z,27.60
2022-08-05T13:29:12.729Z,27.60
2022-08-05T13:30:53.355Z,27.50
2022-08-05T13:32:30.730Z,27.60
2022-08-05T13:34:23.297Z,27.60
2022-08-05T13:36:01.877Z,27.50
2022-08-05T13:37:37.288Z,27.50
2022-08-05T13:40:12.782Z,27.40
2022-08-05T13:41:04.312Z,27.30
2022-08-05T13:42:37.240Z,27.20
2022-08-05T13:44:10.186Z,27.10
2022-08-05T13:45:44.350Z,26.90
2022-08-05T13:47:28.151Z,26.80
2022-08-05T13:49:10.146Z,26.80
2022-08-05T13:50:44.403Z,26.70
2022-08-05T13:52:29.216Z,26.70
2022-08-05T13:54:02.358Z,26.70
2022-08-05T13:55:41.494Z,26.60
2022-08-05T13:57:23.290Z,26.60
2022-08-05T13:58:57.214Z,26.50
2022-08-05T14:00:38.991Z,26.40
2022-08-05T14:02:19.882Z,26.30
2022-08-05T14:04:16.002Z,26.20
2022-08-05T14:06:25.412Z,26.20
2022-08-05T14:08:01.195Z,26.10
2022-08-05T14:09:45.996Z,25.90
2022-08-05T14:11:20.591Z,25.80
2022-08-05T14:12:54.915Z,25.80
2022-08-05T14:14:32.323Z,25.80
2022-08-05T14:16:11.528Z,25.70
2022-08-05T14:17:50.691Z,25.70
2022-08-05T14:19:27.796Z,25.70
2022-08-05T14:22:06.733Z,25.70
2022-08-05T14:22:54.292Z,25.60
2022-08-05T14:24:27.094Z,25.60
2022-08-05T14:26:03.354Z,25.60
2022-08-05T14:27:37.879Z,25.60
2022-08-05T14:29:20.046Z,25.50
2022-08-05T14:30:55.355Z,25.50
2022-08-05T14:32:28.374Z,25.50
2022-08-05T14:34:02.610Z,25.40
2022-08-05T14:35:36.882Z,25.30
2022-08-05T14:37:22.926Z,25.30
2022-08-05T14:38:56.820Z,25.20
2022-08-05T14:40:29.719Z,25.10
2022-08-05T14:42:20.743Z,25.00
2022-08-05T14:44:02.059Z,25.00
2022-08-05T14:45:42.184Z,25.00
2022-08-05T14:47:14.992Z,24.90
2022-08-05T14:48:49.163Z,24.80
2022-08-05T14:50:25.284Z,24.80
2022-08-05T14:51:58.213Z,24.80
2022-08-05T14:53:31.040Z,24.80
2022-08-05T14:55:17.341Z,24.80
2022-08-05T14:56:51.761Z,24.80
2022-08-05T14:58:27.597Z,24.70
2022-08-05T15:00:02.105Z,24.70
2022-08-05T15:01:47.094Z,24.60
2022-08-05T15:03:21.372Z,24.60
2022-08-05T15:04:55.788Z,24.50
2022-08-05T15:06:30.424Z,24.40
2022-08-05T15:08:12.187Z,24.40
2022-08-05T15:09:52.429Z,24.40
2022-08-05T15:11:50.884Z,24.40
2022-08-05T15:13:20.156Z,24.40
2022-08-05T15:15:01.191Z,24.40
2022-08-05T15:16:34.471Z,24.40
2022-08-05T15:18:08.581Z,24.40
2022-08-05T15:19:41.316Z,24.30
2022-08-05T15:21:21.963Z,24.30
2022-08-05T15:23:04.448Z,24.20
2022-08-05T15:24:39.669Z,24.20
2022-08-05T15:26:12.546Z,24.20
2022-08-05T15:27:52.026Z,24.30
2022-08-05T15:29:30.288Z,24.30
2022-08-05T15:31:05.657Z,24.30
2022-08-05T15:32:38.648Z,24.30
2022-08-05T15:34:32.429Z,24.30
2022-08-05T15:36:16.929Z,24.30
2022-08-05T15:38:32.588Z,24.20
2022-08-05T15:41:00.920Z,24.20
2022-08-05T15:41:58.326Z,24.20
2022-08-05T15:43:45.878Z,24.20
2022-08-05T15:45:37.940Z,24.20
2022-08-05T15:47:12.643Z,24.10
2022-08-05T15:48:53.133Z,24.10
2022-08-05T15:50:31.588Z,24.00
2022-08-05T15:52:15.823Z,24.00
2022-08-05T15:54:00.114Z,23.90
2022-08-05T15:56:01.884Z,23.90
2022-08-05T15:57:33.082Z,23.90
2022-08-05T15:59:07.514Z,23.90
2022-08-05T16:01:03.485Z,23.90
2022-08-05T16:02:34.612Z,23.70
2022-08-05T16:04:08.649Z,23.90
2022-08-05T16:05:43.287Z,24.00
2022-08-05T16:07:23.520Z,24.00
2022-08-05T16:08:56.543Z,24.00
2022-08-05T16:10:32.124Z,24.10
2022-08-05T16:12:06.154Z,24.00
2022-08-05T16:13:39.123Z,24.00
2022-08-05T16:15:18.621Z,24.10
2022-08-05T16:16:51.692Z,24.10
2022-08-05T16:18:28.106Z,24.10
2022-08-05T16:20:03.621Z,24.20
2022-08-05T16:21:59.268Z,24.10
2022-08-05T16:23:32.873Z,24.10
2022-08-05T16:25:32.308Z,24.10
2022-08-05T16:27:08.575Z,24.00
2022-08-05T16:28:41.475Z,24.00
2022-08-05T16:30:26.289Z,24.00
2022-08-05T16:32:01.407Z,24.10
2022-08-05T16:33:41.576Z,24.10
2022-08-05T16:35:15.992Z,24.10
2022-08-05T16:36:51.191Z,24.00
2022-08-05T16:38:27.871Z,24.10
2022-08-05T16:40:06.577Z,24.10
2022-08-05T16:42:15.369Z,24.10
2022-08-05T16:43:35.886Z,24.10
2022-08-05T16:46:05.783Z,24.10
2022-08-05T16:47:03.931Z,24.10
2022-08-05T16:48:38.956Z,24.10
2022-08-05T16:50:12.800Z,24.10
2022-08-05T16:51:51.126Z,24.10
2022-08-05T16:53:32.500Z,24.10
2022-08-05T16:55:20.591Z,24.10
2022-08-05T16:56:53.520Z,24.00
2022-08-05T16:58:26.267Z,24.00
2022-08-05T17:00:07.374Z,24.00
2022-08-05T17:01:54.606Z,24.00
2022-08-05T17:03:28.807Z,24.10
2022-08-05T17:05:04.404Z,24.00
2022-08-05T17:06:39.015Z,24.00
2022-08-05T17:08:15.176Z,24.00
2022-08-05T17:10:08.875Z,24.00
2022-08-05T17:11:48.432Z,23.90
2022-08-05T17:13:37.523Z,23.90
2022-08-05T17:15:19.537Z,23.90
2022-08-05T17:16:53.383Z,23.90
2022-08-05T17:18:27.274Z,23.90
2022-08-05T17:20:00.090Z,23.80
2022-08-05T17:21:36.187Z,23.80
2022-08-05T17:23:09.671Z,23.80
2022-08-05T17:25:02.767Z,23.80
2022-08-05T17:26:55.357Z,23.80
2022-08-05T17:28:28.830Z,23.70
2022-08-05T17:30:02.393Z,23.70
2022-08-05T17:31:56.442Z,23.70
2022-08-05T17:33:29.795Z,23.70
2022-08-05T17:35:12.524Z,23.70
2022-08-05T17:36:48.517Z,23.70
2022-08-05T17:38:21.733Z,23.80
2022-08-05T17:39:55.778Z,23.70
2022-08-05T17:42:20.276Z,23.70
2022-08-05T17:43:47.086Z,23.80
2022-08-05T17:45:20.458Z,23.70
2022-08-05T17:46:55.511Z,23.60
2022-08-05T17:48:28.346Z,23.60
2022-08-05T17:50:10.258Z,23.60
2022-08-05T17:51:44.310Z,23.60
2022-08-05T17:53:18.951Z,23.60
2022-08-05T17:54:53.932Z,23.70
2022-08-05T17:56:28.614Z,23.60
2022-08-05T17:58:01.978Z,23.60
2022-08-05T17:59:34.754Z,23.60
2022-08-05T18:01:09.853Z,23.60
2022-08-05T18:02:44.308Z,23.50
2022-08-05T18:04:21.232Z,23.50
2022-08-05T18:06:03.837Z,23.60
2022-08-05T18:07:41.737Z,23.60
2022-08-05T18:09:15.159Z,23.50
2022-08-05T18:10:48.182Z,23.50
2022-08-05T18:12:23.988Z,23.60
2022-08-05T18:13:57.354Z,23.50
2022-08-05T18:15:34.444Z,23.50
2022-08-05T18:18:01.655Z,23.60
2022-08-05T18:19:03.626Z,23.60
2022-08-05T18:20:36.459Z,23.60
2022-08-05T18:22:11.317Z,23.70
2022-08-05T18:23:46.993Z,23.70
2022-08-05T18:25:20.243Z,23.70
2022-08-05T18:26:55.021Z,23.70
2022-08-05T18:28:28.480Z,23.70
2022-08-05T18:30:01.415Z,23.60
2022-08-05T18:31:35.435Z,23.60
2022-08-05T18:33:08.803Z,23.50
2022-08-05T18:34:48.060Z,23.50
2022-08-05T18:36:21.116Z,23.50
2022-08-05T18:38:01.000Z,23.40
2022-08-05T18:40:31.727Z,23.40
2022-08-05T18:41:57.573Z,23.40
2022-08-05T18:43:23.213Z,23.40
2022-08-05T18:44:56.632Z,23.30
2022-08-05T18:46:29.474Z,23.20
2022-08-05T18:48:03.253Z,23.20
2022-08-05T18:49:58.452Z,23.20
2022-08-05T18:52:06.301Z,23.20
2022-08-05T18:53:43.091Z,23.10
2022-08-05T18:55:18.804Z,23.10
2022-08-05T18:56:52.023Z,23.20
2022-08-05T18:58:28.847Z,23.20
2022-08-05T19:00:07.723Z,23.20
2022-08-05T19:01:48.248Z,23.10
2022-08-05T19:03:55.310Z,23.10
2022-08-05T19:06:11.758Z,23.10
2022-08-05T19:07:17.837Z,23.10
2022-08-05T19:08:50.730Z,23.00
2022-08-05T19:10:28.142Z,23.00
2022-08-05T19:12:01.697Z,22.90
2022-08-05T19:13:35.894Z,22.90
2022-08-05T19:15:36.746Z,22.90
2022-08-05T19:17:03.523Z,22.80
2022-08-05T19:18:39.727Z,22.70
2022-08-05T19:20:14.682Z,22.70
2022-08-05T19:21:48.234Z,22.60
2022-08-05T19:24:06.596Z,22.60
2022-08-05T19:25:21.526Z,22.60
2022-08-05T19:26:55.818Z,22.50
2022-08-05T19:28:30.034Z,22.50
2022-08-05T19:30:03.358Z,22.40
2022-08-05T19:31:44.880Z,22.40
2022-08-05T19:33:35.122Z,22.40
2022-08-05T19:35:10.391Z,22.30
2022-08-05T19:36:43.261Z,22.30
2022-08-05T19:38:26.395Z,22.30
2022-08-05T19:40:01.341Z,22.30
2022-08-05T19:42:03.392Z,22.30
2022-08-05T19:44:05.967Z,22.20
2022-08-05T19:45:20.005Z,22.20
2022-08-05T19:46:58.214Z,22.20
2022-08-05T19:48:30.983Z,22.20
2022-08-05T19:50:04.151Z,22.10
2022-08-05T19:52:08.628Z,22.10
2022-08-05T19:54:03.513Z,22.10
2022-08-05T19:56:14.842Z,22.10
2022-08-05T19:57:20.052Z,22.00
2022-08-05T19:59:51.244Z,22.00
2022-08-05T20:01:06.518Z,22.00
2022-08-05T20:02:39.271Z,21.90
2022-08-05T20:04:16.339Z,21.90
2022-08-05T20:05:58.962Z,21.90
2022-08-05T20:07:48.260Z,21.90
2022-08-05T20:09:22.259Z,21.90
2022-08-05T20:10:59.731Z,21.80
2022-08-05T20:12:32.572Z,21.80
2022-08-05T20:14:14.114Z,21.70
2022-08-05T20:15:51.705Z,21.60
2022-08-05T20:17:29.075Z,21.60
2022-08-05T20:19:06.721Z,21.60
2022-08-05T20:20:42.907Z,21.50
2022-08-05T20:22:15.698Z,21.50
2022-08-05T20:23:50.890Z,21.50
2022-08-05T20:25:24.178Z,21.50
2022-08-05T20:27:11.661Z,21.50
2022-08-05T20:28:45.114Z,21.50
2022-08-05T20:30:18.215Z,21.50
2022-08-05T20:31:57.616Z,21.40
2022-08-05T20:33:31.081Z,21.40
2022-08-05T20:35:04.239Z,21.30
2022-08-05T20:36:39.209Z,21.20
2022-08-05T20:38:26.815Z,21.10
2022-08-05T20:40:00.065Z,21.00
2022-08-05T20:41:44.371Z,20.90
2022-08-05T20:43:57.571Z,20.90
2022-08-05T20:45:12.311Z,20.80
2022-08-05T20:46:45.548Z,20.80
2022-08-05T20:48:18.775Z,20.80
2022-08-05T20:49:51.514Z,20.80
2022-08-05T20:51:24.294Z,20.80
2022-08-05T20:52:57.308Z,20.80
2022-08-05T20:54:42.786Z,20.80
2022-08-05T20:56:29.842Z,20.80
2022-08-05T20:58:02.880Z,20.80
2022-08-05T20:59:46.322Z,20.70
2022-08-05T21:01:38.654Z,20.70
2022-08-05T21:03:11.950Z,20.70
2022-08-05T21:04:50.138Z,20.70
2022-08-05T21:06:28.379Z,20.60
2022-08-05T21:08:02.717Z,20.60
2022-08-05T21:09:35.731Z,20.50
2022-08-05T21:11:11.613Z,20.50
2022-08-05T21:13:08.207Z,20.40
2022-08-05T21:14:39.530Z,20.40
2022-08-05T21:16:12.288Z,20.30
2022-08-05T21:17:45.305Z,20.30
2022-08-05T21:19:20.505Z,20.30
2022-08-05T21:20:56.539Z,20.20
2022-08-05T21:22:30.153Z,20.20
2022-08-05T21:24:04.496Z,20.20
2022-08-05T21:25:37.379Z,20.10
2022-08-05T21:27:10.115Z,20.10
2022-08-05T21:28:50.585Z,20.10
2022-08-05T21:30:25.164Z,20.00
2022-08-05T21:31:58.717Z,20.00
2022-08-05T21:33:36.898Z,20.00
2022-08-05T21:35:18.046Z,20.00
2022-08-05T21:37:02.458Z,20.00
2022-08-05T21:38:38.722Z,19.90
2022-08-05T21:40:14.179Z,19.90
2022-08-05T21:41:52.686Z,19.90
2022-08-05T21:43:41.584Z,19.90